Time;durP1;ratioP1;P1;durP2;ratioP2;P2;SDS_P1;SDS_P2;PMS_P1;PMS_P2;Temp;Humidity;BMP_temperature;BMP_pressure;BME280_temperature;BME280_humidity;BME280_pressure;Samples;Min_cycle;Max_cycle;Signal;HPM_P1;HPM_P2
2023/03/19 00:00:55;;;;;;;53.10;47.60;;;;;;;1.37;55.15;98022.73;108892;1296;22270;-84
2023/03/19 00:03:39;;;;;;;58.40;51.80;;;;;;;1.32;54.98;98019.27;108875;1296;22231;-81
2023/03/19 00:06:07;;;;;;;62.50;55.60;;;;;;;1.31;55.35;98019.48;108875;1296;22283;-84
2023/03/19 00:08:35;;;;;;;55.90;49.90;;;;;;;1.25;56.45;98019.66;109241;1296;22422;-83
2023/03/19 00:11:08;;;;;;;61.90;54.20;;;;;;;1.20;56.33;98019.09;109305;1296;22195;-84
2023/03/19 00:13:36;;;;;;;56.90;50.80;;;;;;;1.19;56.34;98020.60;109330;1296;22084;-83
2023/03/19 00:16:06;;;;;;;55.40;49.20;;;;;;;1.13;55.85;98022.84;109313;1296;22390;-84
2023/03/19 00:18:34;;;;;;;67.50;60.70;;;;;;;1.08;55.92;98021.77;109340;1296;22211;-83
2023/03/19 00:21:02;;;;;;;64.30;57.30;;;;;;;1.04;55.89;98021.02;109095;1296;23101;-83
2023/03/19 00:23:30;;;;;;;56.50;50.30;;;;;;;1.09;55.72;98021.52;108870;1296;22149;-83
2023/03/19 00:25:59;;;;;;;55.50;50.00;;;;;;;1.16;55.68;98017.05;108871;1296;22256;-84
2023/03/19 00:28:27;;;;;;;55.80;50.00;;;;;;;1.23;55.30;98016.18;108889;1296;22148;-84
2023/03/19 00:30:55;;;;;;;59.80;53.00;;;;;;;1.30;55.69;98016.16;108877;1296;22767;-84
2023/03/19 00:33:24;;;;;;;58.70;52.50;;;;;;;1.24;56.26;98019.11;108862;1296;22983;-82
2023/03/19 00:35:52;;;;;;;58.50;52.20;;;;;;;1.17;56.01;98014.66;108885;1296;22209;-82
2023/03/19 00:38:20;;;;;;;60.50;54.10;;;;;;;1.13;56.01;98020.19;108856;1296;22299;-84
2023/03/19 00:40:48;;;;;;;55.70;49.10;;;;;;;1.05;56.94;98020.34;108877;1296;22228;-82
2023/03/19 00:43:17;;;;;;;63.20;51.60;;;;;;;0.99;56.93;98015.71;108846;1296;22260;-82
2023/03/19 00:45:46;;;;;;;61.30;49.50;;;;;;;1.00;56.75;98011.63;108839;1296;22237;-82
2023/03/19 00:48:14;;;;;;;53.50;47.90;;;;;;;0.96;56.51;98011.54;108858;1296;22258;-82
2023/03/19 00:50:42;;;;;;;54.90;48.80;;;;;;;0.93;56.69;98011.38;108865;1296;22283;-82
2023/03/19 00:53:10;;;;;;;51.10;45.60;;;;;;;0.87;57.16;98014.02;108874;1296;22706;-82
2023/03/19 00:55:38;;;;;;;57.30;49.40;;;;;;;0.86;57.09;98011.08;108843;1296;23038;-81
2023/03/19 00:58:06;;;;;;;51.10;45.90;;;;;;;0.85;57.04;98002.73;108842;1296;22162;-82
2023/03/19 01:00:37;;;;;;;55.50;46.80;;;;;;;0.85;56.85;97999.02;108843;1296;22222;-82
2023/03/19 01:03:05;;;;;;;45.40;40.70;;;;;;;1.03;57.23;98003.30;108886;1296;23448;-82
2023/03/19 01:05:35;;;;;;;46.50;41.60;;;;;;;1.27;56.90;98002.83;108755;1296;22263;-82
2023/03/19 01:08:03;;;;;;;50.40;45.10;;;;;;;1.42;56.37;98001.30;108832;1296;22258;-84
2023/03/19 01:10:33;;;;;;;83.50;69.00;;;;;;;1.46;56.44;98001.11;108842;1296;22215;-82
2023/03/19 01:13:02;;;;;;;57.30;49.90;;;;;;;1.48;56.38;98000.52;108855;1296;22367;-84
2023/03/19 01:15:30;;;;;;;60.70;54.30;;;;;;;1.52;56.42;97999.31;108812;1296;22215;-83
2023/03/19 01:17:58;;;;;;;53.60;48.10;;;;;;;1.53;56.39;98004.16;108863;1296;22943;-82
2023/03/19 01:20:26;;;;;;;46.40;41.40;;;;;;;1.40;56.55;98004.77;108860;1296;22196;-82
2023/03/19 01:22:54;;;;;;;42.40;37.90;;;;;;;1.32;56.59;98003.88;108830;1296;22218;-82
2023/03/19 01:25:23;;;;;;;42.60;38.00;;;;;;;1.29;56.46;98002.45;108853;1296;22207;-82
2023/03/19 01:28:01;;;;;;;43.30;38.50;;;;;;;1.33;56.51;98002.58;108696;1296;22186;-83
2023/03/19 01:30:30;;;;;;;43.80;39.30;;;;;;;1.36;56.50;97998.02;108866;1296;22288;-83
2023/03/19 01:33:32;;;;;;;45.10;40.40;;;;;;;1.34;56.36;97996.80;108871;1296;22229;-82
2023/03/19 01:36:11;;;;;;;49.30;41.70;;;;;;;1.36;56.34;97997.01;108868;1296;22210;-82
2023/03/19 01:38:52;;;;;;;47.40;42.40;;;;;;;1.25;56.77;98002.89;108842;1296;23049;-82
2023/03/19 01:41:22;;;;;;;52.60;47.10;;;;;;;1.19;56.65;97999.97;108828;1296;22192;-82
2023/03/19 01:43:52;;;;;;;52.10;46.60;;;;;;;1.23;56.68;98001.70;108769;1296;22410;-82
2023/03/19 01:46:43;;;;;;;82.00;67.00;;;;;;;1.16;56.95;97996.52;108858;1296;22219;-82
2023/03/19 01:49:33;;;;;;;60.80;54.30;;;;;;;1.08;56.86;98003.73;108859;1296;22292;-82
2023/03/19 01:52:19;;;;;;;49.00;43.20;;;;;;;1.00;56.94;98000.27;108841;1296;22251;-81
2023/03/19 01:55:13;;;;;;;51.90;39.50;;;;;;;0.96;56.96;97996.59;108766;1296;22227;-81
2023/03/19 01:58:02;;;;;;;43.30;36.90;;;;;;;0.99;56.82;97995.46;108798;1296;22220;-81
2023/03/19 02:00:40;;;;;;;50.70;45.50;;;;;;;1.03;56.84;97994.28;108860;1296;22811;-82
2023/03/19 02:03:08;;;;;;;44.00;39.50;;;;;;;1.00;57.73;97999.22;109215;1296;22274;-81
2023/03/19 02:06:07;;;;;;;47.50;41.40;;;;;;;0.91;58.00;97995.73;109239;1283;22233;-81
2023/03/19 02:08:37;;;;;;;66.80;59.70;;;;;;;0.89;58.04;97997.02;109096;1297;22242;-81
2023/03/19 02:11:06;;;;;;;47.80;43.00;;;;;;;0.89;57.65;97996.23;108929;1296;22952;-82
2023/03/19 02:13:35;;;;;;;41.20;36.80;;;;;;;0.94;57.44;97993.66;108839;1296;22238;-82
2023/03/19 02:16:03;;;;;;;40.20;36.00;;;;;;;1.00;57.46;97993.55;108862;1296;22219;-81
2023/03/19 02:18:32;;;;;;;41.40;36.70;;;;;;;1.00;57.84;97996.93;108855;1296;22170;-81
2023/03/19 02:21:09;;;;;;;41.50;37.30;;;;;;;0.93;58.39;97997.52;108894;1296;22228;-82
2023/03/19 02:24:01;;;;;;;40.30;36.30;;;;;;;0.85;58.01;98000.02;108840;1282;22164;-82
2023/03/19 02:26:44;;;;;;;37.70;33.90;;;;;;;0.80;57.55;97996.36;108744;1296;22229;-82
2023/03/19 02:29:12;;;;;;;37.70;33.70;;;;;;;0.86;57.83;98000.09;108824;1296;22236;-82
2023/03/19 02:31:41;;;;;;;39.10;34.80;;;;;;;0.92;58.02;98000.43;108849;1297;22218;-82
2023/03/19 02:34:09;;;;;;;38.90;33.60;;;;;;;0.91;58.12;98005.39;108850;1296;22234;-83
2023/03/19 02:36:53;;;;;;;34.10;30.40;;;;;;;0.82;57.90;98003.20;108844;1296;22175;-83
2023/03/19 02:39:38;;;;;;;35.70;31.80;;;;;;;0.83;57.97;98010.70;108822;1296;23089;-82
2023/03/19 02:42:08;;;;;;;;;;;;;;;0.92;57.81;98011.73;108860;1296;22415;-83
2023/03/19 02:44:36;;;;;;;36.00;32.10;;;;;;;1.01;57.96;98014.30;108857;1296;22170;-82
2023/03/19 02:47:04;;;;;;;34.40;30.90;;;;;;;1.11;57.94;98015.94;108756;1296;22245;-82
2023/03/19 02:49:32;;;;;;;36.60;32.70;;;;;;;1.17;57.66;98016.64;108864;1296;22267;-83
2023/03/19 02:52:01;;;;;;;37.60;33.50;;;;;;;1.10;58.53;98014.92;108847;1296;22136;-82
2023/03/19 02:54:29;;;;;;;35.80;32.10;;;;;;;0.93;59.58;98013.99;108846;1296;22238;-82
2023/03/19 02:56:57;;;;;;;34.90;31.20;;;;;;;0.77;59.49;98016.83;108850;1296;22229;-82
2023/03/19 02:59:25;;;;;;;36.70;32.90;;;;;;;0.70;58.95;98020.80;108843;1296;22211;-82
2023/03/19 03:01:53;;;;;;;32.80;29.50;;;;;;;0.70;58.75;98020.39;108839;1296;22282;-82
2023/03/19 03:04:21;;;;;;;33.40;29.90;;;;;;;0.75;58.75;98012.95;108857;1296;22175;-82
2023/03/19 03:06:49;;;;;;;31.50;28.20;;;;;;;0.73;58.63;98011.96;108850;1296;22249;-82
2023/03/19 03:09:17;;;;;;;30.10;27.00;;;;;;;0.71;59.15;98018.48;108843;1296;22114;-81
2023/03/19 03:11:45;;;;;;;28.60;25.60;;;;;;;0.70;60.10;98023.19;108841;1296;23334;-81
2023/03/19 03:14:13;;;;;;;30.30;27.20;;;;;;;0.74;60.33;98025.63;108832;1296;22141;-81
2023/03/19 03:16:41;;;;;;;33.00;29.60;;;;;;;0.78;59.60;98030.11;108840;1296;22116;-81
2023/03/19 03:19:10;;;;;;;28.90;26.00;;;;;;;0.85;59.41;98027.04;108835;1296;22897;-81
2023/03/19 03:21:38;;;;;;;29.50;26.60;;;;;;;0.94;58.99;98021.05;108851;1296;22836;-81
2023/03/19 03:24:06;;;;;;;33.30;29.40;;;;;;;1.00;58.95;98019.12;108845;1296;22860;-81
2023/03/19 03:26:37;;;;;;;31.30;27.90;;;;;;;1.03;59.06;98017.31;108863;1296;22246;-81
2023/03/19 03:29:06;;;;;;;32.90;29.40;;;;;;;0.94;59.95;98021.52;108727;1296;22211;-81
2023/03/19 03:31:34;;;;;;;35.20;31.60;;;;;;;0.81;59.63;98027.44;108856;1296;22235;-81
2023/03/19 03:34:03;;;;;;;32.70;29.30;;;;;;;0.72;59.13;98025.31;108868;1296;22208;-82
2023/03/19 03:36:31;;;;;;;30.80;27.70;;;;;;;0.76;59.25;98024.77;108846;1296;22147;-81
2023/03/19 03:38:59;;;;;;;35.00;31.40;;;;;;;0.84;59.16;98026.90;108862;1296;22275;-81
2023/03/19 03:41:27;;;;;;;30.80;27.50;;;;;;;0.92;59.25;98028.80;108849;1296;22900;-80
2023/03/19 03:43:55;;;;;;;29.30;26.30;;;;;;;0.99;58.96;98028.54;108729;1296;22198;-80
2023/03/19 03:46:23;;;;;;;31.70;28.50;;;;;;;1.01;59.24;98031.65;108861;1296;22314;-80
2023/03/19 03:48:52;;;;;;;29.00;25.90;;;;;;;0.89;59.37;98035.59;108845;1296;22227;-80
2023/03/19 03:51:21;;;;;;;36.40;32.90;;;;;;;0.83;59.42;98037.81;108840;1296;22194;-81
2023/03/19 03:53:49;;;;;;;34.00;30.70;;;;;;;0.86;59.18;98040.00;108875;1296;22244;-81
2023/03/19 03:56:16;;;;;;;30.60;27.60;;;;;;;0.91;59.17;98036.98;108881;1296;22205;-81
2023/03/19 03:58:44;;;;;;;28.40;25.60;;;;;;;0.90;59.14;98030.89;108809;1296;22200;-81
2023/03/19 04:01:15;;;;;;;41.40;37.30;;;;;;;0.90;59.17;98033.02;108855;1296;22250;-81
2023/03/19 04:03:45;;;;;;;34.20;30.70;;;;;;;0.82;59.50;98030.52;108731;1296;22238;-81
2023/03/19 04:06:18;;;;;;;30.50;27.30;;;;;;;0.75;59.35;98032.38;108839;1296;22217;-81
2023/03/19 04:08:49;;;;;;;26.50;23.90;;;;;;;0.78;59.52;98028.92;108841;1296;22263;-81
2023/03/19 04:11:18;;;;;;;24.50;22.00;;;;;;;0.86;59.49;98026.36;108841;1296;22980;-82
2023/03/19 04:13:46;;;;;;;24.50;22.10;;;;;;;0.95;59.25;98018.78;108844;1296;22234;-82
2023/03/19 04:16:14;;;;;;;27.60;24.70;;;;;;;1.02;59.44;98022.34;108861;1296;22272;-82
2023/03/19 04:18:42;;;;;;;44.00;39.50;;;;;;;0.92;60.08;98024.59;108855;1296;23010;-82
2023/03/19 04:21:10;;;;;;;75.60;68.60;;;;;;;0.80;59.84;98023.58;108848;1296;22933;-81
2023/03/19 04:23:38;;;;;;;52.60;47.50;;;;;;;0.76;59.68;98028.95;108858;1296;22151;-81
2023/03/19 04:26:07;;;;;;;34.10;30.90;;;;;;;0.78;59.64;98030.48;108836;1296;22201;-82
2023/03/19 04:28:35;;;;;;;34.20;31.10;;;;;;;0.79;59.54;98029.27;108820;1296;22205;-81
2023/03/19 04:31:08;;;;;;;25.80;23.30;;;;;;;0.71;59.40;98026.73;108833;1296;22222;-82
2023/03/19 04:33:39;;;;;;;37.00;33.40;;;;;;;0.63;59.41;98022.42;108837;1296;22157;-81
2023/03/19 04:36:07;;;;;;;43.20;38.80;;;;;;;0.65;59.91;98021.39;108863;1296;22339;-81
2023/03/19 04:38:37;;;;;;;44.50;40.40;;;;;;;0.71;59.80;98016.90;108838;1296;22195;-80
2023/03/19 04:41:04;;;;;;;33.70;30.30;;;;;;;0.75;59.59;98014.87;108841;1296;22989;-82
2023/03/19 04:43:35;;;;;;;52.10;47.20;;;;;;;0.72;59.86;98015.98;108827;1296;22232;-85
2023/03/19 04:46:06;;;;;;;29.90;26.90;;;;;;;0.67;59.91;98016.08;108836;1297;22248;-80
2023/03/19 04:48:38;;;;;;;25.40;23.00;;;;;;;0.70;59.88;98016.14;108834;1296;22229;-81
2023/03/19 04:51:08;;;;;;;30.20;27.10;;;;;;;0.77;59.87;98018.41;108823;1296;22287;-84
2023/03/19 04:53:37;;;;;;;33.30;30.10;;;;;;;0.87;59.77;98018.67;108783;1297;22240;-81
2023/03/19 04:56:06;;;;;;;42.20;38.10;;;;;;;0.95;59.98;98016.94;108829;1296;22284;-80
2023/03/19 04:58:35;;;;;;;33.00;29.70;;;;;;;0.92;59.54;98016.34;108823;1285;22238;-82
2023/03/19 05:01:03;;;;;;;32.00;28.50;;;;;;;0.94;59.72;98014.46;108840;1296;22128;-82
2023/03/19 05:03:54;;;;;;;33.00;30.00;;;;;;;0.96;60.05;98012.34;108851;1296;22263;-82
2023/03/19 05:06:23;;;;;;;33.80;30.50;;;;;;;0.86;60.18;98015.79;108689;1296;22886;-82
2023/03/19 05:08:51;;;;;;;32.10;28.80;;;;;;;0.83;60.14;98016.10;108831;1296;22222;-82
2023/03/19 05:11:20;;;;;;;33.80;30.40;;;;;;;0.89;60.19;98009.87;108837;1296;22211;-82
2023/03/19 05:14:03;;;;;;;28.00;25.20;;;;;;;0.99;60.02;98013.36;108841;1296;22195;-83
2023/03/19 05:16:38;;;;;;;28.90;25.90;;;;;;;1.00;60.27;98012.90;108750;1296;22222;-83
2023/03/19 05:19:07;;;;;;;24.20;21.70;;;;;;;0.96;60.12;98014.88;108801;1296;22849;-83
2023/03/19 05:21:36;;;;;;;25.00;22.50;;;;;;;0.96;60.24;98013.81;108841;1296;22288;-83
2023/03/19 05:24:04;;;;;;;27.20;24.40;;;;;;;0.97;60.16;98011.84;108823;1296;22197;-83
2023/03/19 05:26:34;;;;;;;25.40;22.70;;;;;;;1.06;60.23;98007.02;108823;1296;22174;-83
2023/03/19 05:29:20;;;;;;;22.80;20.40;;;;;;;1.18;60.18;98011.46;108839;1289;22973;-83
2023/03/19 05:32:09;;;;;;;21.80;19.30;;;;;;;1.31;60.27;98010.55;108785;1296;22415;-83
2023/03/19 05:34:38;;;;;;;21.20;18.50;;;;;;;1.43;59.99;98000.20;108823;1296;22226;-83
2023/03/19 05:37:08;;;;;;;21.30;19.10;;;;;;;1.56;60.20;98003.80;108817;1296;22193;-83
2023/03/19 05:39:36;;;;;;;30.80;27.80;;;;;;;1.71;60.09;98009.98;108831;1296;22269;-82
2023/03/19 05:42:07;;;;;;;24.40;21.90;;;;;;;1.84;59.96;98013.82;108816;1296;22216;-81
2023/03/19 05:44:35;;;;;;;23.70;21.20;;;;;;;1.94;59.84;98010.90;108813;1297;23094;-81
2023/03/19 05:47:26;;;;;;;25.50;22.90;;;;;;;2.10;60.11;98011.20;108813;1296;23338;-80
2023/03/19 05:49:56;;;;;;;23.30;20.40;;;;;;;2.23;60.08;98007.60;108809;1296;22219;-81
2023/03/19 05:52:25;;;;;;;21.60;19.30;;;;;;;2.35;59.86;98013.95;108828;1296;22379;-82
2023/03/19 05:54:54;;;;;;;19.50;17.40;;;;;;;2.52;60.22;98012.03;108848;1296;22217;-82
2023/03/19 05:57:48;;;;;;;23.50;21.20;;;;;;;2.76;60.12;98020.61;108829;1296;22237;-84
2023/03/19 06:00:20;;;;;;;26.70;24.20;;;;;;;2.92;59.87;98025.46;108637;1296;22281;-83
2023/03/19 06:02:48;;;;;;;31.40;28.50;;;;;;;3.06;59.93;98028.15;108863;1296;22205;-83
2023/03/19 06:05:21;;;;;;;27.10;22.50;;;;;;;3.19;59.67;98030.60;108855;1296;22252;-83
2023/03/19 06:07:51;;;;;;;31.40;28.20;;;;;;;3.27;59.69;98035.65;108818;1296;22257;-84
2023/03/19 06:10:36;;;;;;;;;;;;;;;3.33;59.56;98034.50;108836;1296;22912;-83
2023/03/19 06:13:08;;;;;;;29.80;26.70;;;;;;;3.34;59.64;98038.45;108814;1295;22214;-83
2023/03/19 06:15:39;;;;;;;29.30;26.30;;;;;;;3.41;59.79;98035.76;108823;1296;22180;-84
2023/03/19 06:18:30;;;;;;;32.80;29.60;;;;;;;3.51;59.51;98041.90;108831;1296;22197;-83
2023/03/19 06:20:59;;;;;;;30.70;27.60;;;;;;;3.62;59.70;98045.38;108835;1297;22922;-83
2023/03/19 06:23:27;;;;;;;36.60;32.90;;;;;;;3.76;59.76;98042.86;108827;1296;22208;-83
2023/03/19 06:25:55;;;;;;;38.20;34.30;;;;;;;3.90;59.77;98041.83;108826;1296;22207;-83
2023/03/19 06:28:25;;;;;;;39.00;34.80;;;;;;;4.06;59.58;98038.36;108832;1277;22205;-85
2023/03/19 06:30:55;;;;;;;29.70;26.60;;;;;;;4.23;59.64;98035.90;108846;1296;22220;-83
2023/03/19 06:33:42;;;;;;;27.30;24.40;;;;;;;4.47;59.71;98040.26;108812;1296;22222;-83
2023/03/19 06:36:11;;;;;;;25.10;22.50;;;;;;;4.70;59.47;98041.73;108844;1296;22213;-83
2023/03/19 06:38:39;;;;;;;20.10;18.00;;;;;;;4.92;59.46;98039.48;108826;1296;22969;-83
2023/03/19 06:41:07;;;;;;;19.00;16.90;;;;;;;5.18;59.26;98034.65;108828;1297;22978;-83
2023/03/19 06:43:36;;;;;;;18.30;14.80;;;;;;;5.44;59.02;98036.48;108840;1296;22257;-85
2023/03/19 06:46:05;;;;;;;17.40;15.50;;;;;;;5.70;59.01;98039.80;108851;1296;22234;-84
2023/03/19 06:48:36;;;;;;;18.10;16.30;;;;;;;5.92;58.49;98042.84;108838;1296;22246;-84
2023/03/19 06:51:04;;;;;;;19.10;17.10;;;;;;;6.15;58.40;98046.72;108816;1296;23021;-84
2023/03/19 06:53:33;;;;;;;20.80;18.70;;;;;;;6.34;58.14;98045.13;108712;1287;22211;-84
2023/03/19 06:56:01;;;;;;;22.80;20.40;;;;;;;6.53;57.89;98049.69;108822;1296;22234;-83
2023/03/19 06:58:29;;;;;;;21.80;19.50;;;;;;;6.68;57.65;98048.29;108828;1296;22250;-82
2023/03/19 07:00:59;;;;;;;20.40;18.20;;;;;;;6.82;57.53;98046.77;108820;1296;22250;-82
2023/03/19 07:03:27;;;;;;;19.10;17.10;;;;;;;6.99;57.65;98047.86;108861;1296;22214;-82
2023/03/19 07:05:55;;;;;;;20.00;17.50;;;;;;;7.17;57.37;98048.13;108839;1296;22146;-81
2023/03/19 07:08:28;;;;;;;22.60;20.40;;;;;;;7.35;57.28;98046.84;108840;1294;22220;-81
2023/03/19 07:11:02;;;;;;;17.60;15.90;;;;;;;7.52;57.14;98051.23;108830;1296;22943;-81
2023/03/19 07:13:31;;;;;;;;;;;;;;;7.67;56.54;98048.31;108842;1296;23056;-86
2023/03/19 07:15:59;;;;;;;14.90;13.40;;;;;;;7.79;56.62;98049.91;108847;1296;22243;-82
2023/03/19 07:18:28;;;;;;;14.90;13.50;;;;;;;7.93;56.17;98048.11;108844;1292;22284;-81
2023/03/19 07:20:56;;;;;;;14.60;13.10;;;;;;;8.08;56.19;98048.08;108819;1296;22887;-81
2023/03/19 07:23:25;;;;;;;15.70;14.20;;;;;;;8.23;55.16;98051.63;108829;1296;22858;-80
2023/03/19 07:25:53;;;;;;;15.40;13.90;;;;;;;8.36;54.98;98049.14;108819;1296;22222;-80
2023/03/19 07:28:21;;;;;;;15.60;14.10;;;;;;;8.50;55.11;98045.23;108821;1296;22234;-80
2023/03/19 07:30:52;;;;;;;15.90;14.10;;;;;;;8.65;54.62;98044.88;108823;1296;23058;-81
2023/03/19 07:33:20;;;;;;;16.20;14.30;;;;;;;8.76;54.39;98044.50;108783;1297;22207;-81
2023/03/19 07:35:49;;;;;;;16.70;14.90;;;;;;;8.91;54.15;98044.05;108770;1296;22191;-80
2023/03/19 07:38:17;;;;;;;16.90;15.20;;;;;;;9.02;53.55;98036.25;108810;1296;22209;-80
2023/03/19 07:40:46;;;;;;;18.00;16.00;;;;;;;9.16;53.51;98032.24;108803;1296;23113;-80
2023/03/19 07:43:30;;;;;;;16.60;14.90;;;;;;;9.30;53.79;98035.30;108808;1297;22899;-80
2023/03/19 07:45:58;;;;;;;17.20;15.40;;;;;;;9.43;53.99;98032.23;108851;1297;22283;-80
2023/03/19 07:48:26;;;;;;;16.50;14.60;;;;;;;9.56;52.99;98030.10;108803;1297;22254;-80
2023/03/19 07:50:55;;;;;;;16.20;14.60;;;;;;;9.66;52.54;98034.71;108811;1296;22238;-81
2023/03/19 07:53:25;;;;;;;16.90;15.10;;;;;;;9.77;53.01;98037.89;108856;1297;22154;-81
2023/03/19 07:55:54;;;;;;;18.50;16.50;;;;;;;9.88;52.98;98038.88;109047;1296;22462;-83
2023/03/19 07:58:22;;;;;;;18.20;15.00;;;;;;;9.97;52.77;98036.42;108801;1297;22222;-82
2023/03/19 08:00:52;;;;;;;16.30;14.60;;;;;;;10.10;52.93;98034.67;108991;1297;22124;-83
2023/03/19 08:03:20;;;;;;;14.80;13.30;;;;;;;10.25;52.47;98036.84;109001;1297;22745;-81
2023/03/19 08:05:50;;;;;;;16.00;14.30;;;;;;;10.36;52.38;98027.73;109041;1296;22946;-83
2023/03/19 08:08:18;;;;;;;15.80;14.20;;;;;;;10.45;51.34;98034.34;109058;1296;22232;-82
2023/03/19 08:10:49;;;;;;;16.10;14.20;;;;;;;10.48;51.53;98033.11;108848;1297;22140;-82
2023/03/19 08:13:18;;;;;;;24.40;16.90;;;;;;;10.51;51.28;98030.58;108917;1294;22308;-80
2023/03/19 08:15:49;;;;;;;17.00;14.90;;;;;;;10.56;51.11;98028.76;109012;1296;22141;-82
2023/03/19 08:18:18;;;;;;;15.80;13.50;;;;;;;10.65;50.95;98028.09;108992;1296;22230;-81
2023/03/19 08:20:47;;;;;;;16.00;14.20;;;;;;;10.75;49.97;98027.69;108958;1295;22993;-80
2023/03/19 08:23:15;;;;;;;21.90;15.30;;;;;;;10.85;50.22;98027.79;108952;1296;22270;-80
2023/03/19 08:25:44;;;;;;;17.10;14.10;;;;;;;10.90;49.09;98026.50;108908;1295;22289;-80
2023/03/19 08:28:13;;;;;;;17.30;14.80;;;;;;;10.98;49.60;98027.39;108926;1297;22222;-82
2023/03/19 08:30:41;;;;;;;14.20;12.50;;;;;;;11.11;49.73;98024.25;108946;1296;22219;-81
2023/03/19 08:33:13;;;;;;;13.50;12.20;;;;;;;11.26;49.23;98022.11;109004;1296;22237;-83
2023/03/19 08:35:48;;;;;;;13.20;11.80;;;;;;;11.36;48.23;98023.75;108915;1295;22241;-82
2023/03/19 08:38:18;;;;;;;13.40;12.00;;;;;;;11.51;48.38;98022.80;109016;1296;22205;-83
2023/03/19 08:40:48;;;;;;;15.80;11.90;;;;;;;11.63;47.86;98021.37;109111;1297;22236;-81
2023/03/19 08:43:16;;;;;;;10.30;8.50;;;;;;;11.75;47.92;98030.00;108902;1296;22222;-82
2023/03/19 08:45:44;;;;;;;8.10;6.00;;;;;;;11.88;45.91;98028.96;109072;1296;22230;-82
2023/03/19 08:48:12;;;;;;;8.70;6.40;;;;;;;11.89;44.49;98024.67;108994;1297;22303;-82
2023/03/19 08:50:41;;;;;;;8.30;6.10;;;;;;;11.83;43.76;98029.85;108973;1297;22144;-82
2023/03/19 08:53:09;;;;;;;11.10;7.90;;;;;;;11.75;44.53;98023.14;109129;1296;22211;-82
2023/03/19 08:55:38;;;;;;;8.40;7.00;;;;;;;11.77;45.07;98020.73;109147;1297;22877;-83
2023/03/19 08:58:06;;;;;;;7.60;6.80;;;;;;;11.84;44.90;98018.60;109079;1297;22159;-83
2023/03/19 09:00:35;;;;;;;6.90;6.20;;;;;;;11.93;43.73;98020.80;109022;1296;22098;-82
2023/03/19 09:03:03;;;;;;;8.00;7.00;;;;;;;11.99;42.95;98019.96;108978;1297;22127;-83
2023/03/19 09:05:38;;;;;;;8.00;7.10;;;;;;;12.06;42.30;98022.95;108948;1296;22135;-80
2023/03/19 09:08:06;;;;;;;8.30;6.40;;;;;;;12.16;43.25;98025.52;108933;1296;22187;-83
2023/03/19 09:10:35;;;;;;;9.00;7.20;;;;;;;12.27;42.44;98021.11;108917;1297;22292;-82
2023/03/19 09:13:04;;;;;;;7.20;6.50;;;;;;;12.35;42.09;98021.19;108959;1297;22139;-83
2023/03/19 09:15:32;;;;;;;9.00;7.50;;;;;;;12.44;42.55;98022.15;108832;1297;22189;-81
2023/03/19 09:18:01;;;;;;;7.60;6.80;;;;;;;12.58;42.32;98020.30;109084;1296;22235;-82
2023/03/19 09:20:31;;;;;;;10.60;7.10;;;;;;;12.69;41.85;98017.16;108840;1296;22246;-81
2023/03/19 09:23:00;;;;;;;8.70;7.40;;;;;;;12.75;41.54;98020.77;109068;1297;22237;-81
2023/03/19 09:25:28;;;;;;;8.40;6.90;;;;;;;12.78;40.78;98019.05;109025;1296;22252;-82
2023/03/19 09:27:56;;;;;;;8.30;7.10;;;;;;;12.78;40.96;98018.92;109154;1296;22198;-80
2023/03/19 09:30:24;;;;;;;8.30;7.50;;;;;;;12.80;40.53;98016.16;109168;1297;22155;-79
2023/03/19 09:32:57;;;;;;;8.50;7.40;;;;;;;12.88;40.23;98014.30;108954;1296;22884;-80
2023/03/19 09:35:30;;;;;;;8.60;7.70;;;;;;;12.99;40.20;98014.77;109029;1297;22213;-82
2023/03/19 09:37:59;;;;;;;9.00;8.00;;;;;;;13.07;40.59;98016.65;108855;1297;22174;-83
2023/03/19 09:40:40;;;;;;;9.40;8.40;;;;;;;13.12;40.07;98014.29;109023;1296;22911;-82
2023/03/19 09:43:33;;;;;;;9.30;7.50;;;;;;;13.15;41.08;98010.40;109069;1296;22149;-83
2023/03/19 09:46:15;;;;;;;9.10;7.90;;;;;;;13.24;40.64;98015.50;108995;1296;22971;-82
2023/03/19 09:49:25;;;;;;;8.30;7.50;;;;;;;13.28;40.75;98011.24;109025;1296;22341;-82
2023/03/19 09:51:57;;;;;;;10.50;8.10;;;;;;;13.30;40.49;98014.10;108966;1296;22220;-82
2023/03/19 09:54:28;;;;;;;8.40;7.50;;;;;;;13.38;40.56;98014.48;108996;1297;22246;-82
2023/03/19 09:56:57;;;;;;;9.30;7.60;;;;;;;13.45;39.65;98011.59;108981;1296;22351;-83
2023/03/19 09:59:27;;;;;;;8.90;7.90;;;;;;;13.53;39.42;98011.52;108806;1297;22238;-82
2023/03/19 10:02:03;;;;;;;9.20;7.60;;;;;;;13.56;39.09;98012.60;109002;1296;23162;-83
2023/03/19 10:04:51;;;;;;;8.60;7.70;;;;;;;13.62;39.36;98006.37;108994;1296;22392;-84
2023/03/19 10:07:20;;;;;;;9.50;7.10;;;;;;;13.78;38.97;98005.86;108993;1296;22252;-85
2023/03/19 10:10:26;;;;;;;8.10;6.70;;;;;;;13.91;38.82;98003.45;108986;1297;22282;-87
2023/03/19 10:12:57;;;;;;;9.70;7.10;;;;;;;14.10;38.65;98001.27;109025;1296;22189;-88
2023/03/19 10:15:31;;;;;;;8.90;7.30;;;;;;;14.19;38.07;97995.10;109009;1296;22366;-84
2023/03/19 10:17:59;;;;;;;8.10;7.20;;;;;;;14.23;38.16;97996.53;109000;1296;22234;-87
2023/03/19 10:20:34;;;;;;;8.50;6.90;;;;;;;14.31;38.42;97984.95;108990;1296;22220;-87
2023/03/19 10:23:39;;;;;;;8.20;6.90;;;;;;;14.47;38.59;97983.52;109039;1296;22106;-85
2023/03/19 10:26:30;;;;;;;8.30;7.20;;;;;;;14.63;37.71;97985.63;108851;1297;22157;-88
2023/03/19 10:29:27;;;;;;;10.00;7.50;;;;;;;14.66;36.98;97979.23;109015;1293;22887;-88
2023/03/19 10:32:09;;;;;;;8.00;6.30;;;;;;;14.61;36.29;97980.81;108987;1296;22958;-86
2023/03/19 10:34:42;;;;;;;7.40;6.10;;;;;;;14.51;37.31;97980.95;108998;1297;22216;-87
2023/03/19 10:37:21;;;;;;;8.30;6.90;;;;;;;14.52;36.20;97975.56;109015;1296;22857;-86
2023/03/19 10:39:54;;;;;;;7.90;6.50;;;;;;;14.48;35.35;97971.07;109018;1296;22221;-88
2023/03/19 10:42:56;;;;;;;8.60;7.80;;;;;;;14.45;35.43;97967.71;109034;1292;22171;-88
2023/03/19 10:45:35;;;;;;;8.70;7.70;;;;;;;14.49;35.63;97965.59;108891;1289;22272;-86
2023/03/19 10:48:11;;;;;;;8.00;7.20;;;;;;;14.53;35.47;97967.34;109008;1296;22219;-87
2023/03/19 10:51:04;;;;;;;8.90;7.00;;;;;;;14.64;35.69;97962.27;108874;1296;22249;-88
2023/03/19 10:53:36;;;;;;;7.70;6.60;;;;;;;14.84;36.06;97965.27;108858;1296;22992;-85
2023/03/19 10:56:06;;;;;;;8.20;7.40;;;;;;;15.00;34.82;97966.09;108858;1296;22229;-88
2023/03/19 10:58:36;;;;;;;8.40;7.50;;;;;;;14.99;33.86;97967.05;108856;1296;22240;-84
2023/03/19 11:01:08;;;;;;;8.00;7.10;;;;;;;14.89;34.70;97968.66;108851;1296;22241;-85
2023/03/19 11:03:39;;;;;;;8.40;6.50;;;;;;;14.93;34.18;97958.31;108872;1296;22165;-90
2023/03/19 11:06:19;;;;;;;9.40;7.20;;;;;;;15.00;34.71;97959.73;108840;1296;22230;-85
2023/03/19 11:08:54;;;;;;;8.50;7.10;;;;;;;15.17;35.18;97953.50;108810;1297;22220;-86
2023/03/19 11:11:33;;;;;;;9.00;7.40;;;;;;;15.42;34.94;97945.48;108873;1296;23008;-86
2023/03/19 11:14:25;;;;;;;9.70;6.70;;;;;;;15.62;34.92;97939.82;108844;1296;23011;-87
2023/03/19 11:17:15;;;;;;;8.60;7.40;;;;;;;15.68;35.13;97944.48;108849;1296;22225;-85
2023/03/19 11:19:53;;;;;;;7.60;6.80;;;;;;;15.65;34.06;97943.16;108839;1296;22231;-85
2023/03/19 11:22:22;;;;;;;7.70;6.90;;;;;;;15.54;33.86;97942.59;108832;1296;22273;-85
2023/03/19 11:24:58;;;;;;;7.60;6.70;;;;;;;15.45;33.73;97938.69;108836;1296;22239;-86
2023/03/19 11:27:28;;;;;;;8.40;7.00;;;;;;;15.42;33.68;97932.09;108815;1297;22228;-85
2023/03/19 11:29:56;;;;;;;9.80;6.70;;;;;;;15.40;33.04;97924.08;108860;1296;22260;-84
2023/03/19 11:32:32;;;;;;;7.90;6.80;;;;;;;15.56;34.11;97915.83;108828;1296;22261;-84
2023/03/19 11:35:19;;;;;;;7.20;6.40;;;;;;;15.77;33.98;97916.35;108839;1296;22370;-84
2023/03/19 11:38:01;;;;;;;11.90;10.70;;;;;;;16.04;34.72;97917.36;108840;1296;22302;-83
2023/03/19 11:40:38;;;;;;;9.40;8.50;;;;;;;16.36;34.31;97912.14;108849;1296;22352;-84
2023/03/19 11:43:31;;;;;;;8.00;6.60;;;;;;;16.65;33.81;97910.93;108827;1296;22241;-86